Prathersville, Missouri
Current Conditions -  °F | °C
As of 12:54 PM on Friday 24 Oct 2014 (Local Time) from KCOU Reporting Station
Overcast Overcast  
Wind Chill: 20°   Ceiling: 4700
Heat Index: 20°   Visibility: 10mi
Dew Point: 16°   Wind: 8mph
Humidity: 76%   Direction: 160°SSE
Pressure: 30.08"   Gusts: NA
Location:  39.0235°N, 92.2896°W
Report Text: KCOU 241754Z 16007KT 10SM FEW037 OVC047 20/16 A3008 RMK AO2 SLP183 T02000156 10200 20117 58012
Loading
Personal Weather Stations






























Interactive Weather Map
Tropical Storm Tracking
New forecast layout! Learn more

10-Day Weather Forecast

Advertisements
Track Severe Weather on mobile